AVA102E SKBO-SKPS
Flight info
| Callsign | AVA102E |
|---|---|
| Flight time | 0h 49m |
| Altitude | 31000 |
| Route | VAPOM4R OREGA Z009 PPN W48 MER |
| Aircraft | A320/M-SDE3FGHIRWY/LB1 |
Departure
| Time | 2026-04-19 03:11 |
|---|---|
| Airport | El Dorado International Airport (SKBO) |
Arrival
| Time | 2026-04-19 04:00 |
|---|---|
| Airport | Antonio Nariño Airport (SKPS) |
| Time | Latitude | Longitude | Altitude | Speed | Heading |
|---|---|---|---|---|---|
| 2026-04-19 02:51 | 4.69691 | -74.14588 | 8366 ft | 0 kts | 217° |
| 2026-04-19 02:54 | 4.69691 | -74.14587 | 8366 ft | 2 kts | 217° |
| 2026-04-19 02:54 | 4.69704 | -74.14577 | 8366 ft | 2 kts | 219° |
| 2026-04-19 02:55 | 4.69717 | -74.14567 | 8366 ft | 2 kts | 221° |
| 2026-04-19 02:55 | 4.69727 | -74.14554 | 8366 ft | 2 kts | 286° |
| 2026-04-19 02:55 | 4.69722 | -74.14541 | 8366 ft | 1 kts | 304° |
| 2026-04-19 02:55 | 4.69720 | -74.14539 | 8366 ft | 0 kts | 306° |
| 2026-04-19 02:57 | 4.69721 | -74.14540 | 8366 ft | 1 kts | 306° |
| 2026-04-19 02:57 | 4.69751 | -74.14581 | 8366 ft | 14 kts | 307° |
| 2026-04-19 02:57 | 4.69814 | -74.14663 | 8366 ft | 8 kts | 308° |
| 2026-04-19 02:57 | 4.69846 | -74.14718 | 8366 ft | 11 kts | 277° |
| 2026-04-19 02:58 | 4.69793 | -74.14777 | 8366 ft | 14 kts | 218° |
| 2026-04-19 02:58 | 4.69705 | -74.14777 | 8366 ft | 15 kts | 135° |
| 2026-04-19 02:58 | 4.69640 | -74.14694 | 8366 ft | 15 kts | 127° |
| 2026-04-19 02:58 | 4.69574 | -74.14608 | 8365 ft | 16 kts | 127° |
| 2026-04-19 02:59 | 4.69506 | -74.14517 | 8365 ft | 17 kts | 127° |
| 2026-04-19 02:59 | 4.69436 | -74.14424 | 8366 ft | 17 kts | 127° |
| 2026-04-19 02:59 | 4.69364 | -74.14329 | 8366 ft | 17 kts | 127° |
| 2026-04-19 02:59 | 4.69289 | -74.14230 | 8365 ft | 18 kts | 127° |
| 2026-04-19 03:00 | 4.69212 | -74.14129 | 8366 ft | 18 kts | 127° |
| 2026-04-19 03:00 | 4.69130 | -74.14081 | 8366 ft | 9 kts | 200° |
| 2026-04-19 03:00 | 4.69122 | -74.14087 | 8366 ft | 0 kts | 216° |
| 2026-04-19 03:02 | 4.69113 | -74.14093 | 8366 ft | 5 kts | 216° |
| 2026-04-19 03:03 | 4.69083 | -74.14115 | 8366 ft | 0 kts | 216° |
| 2026-04-19 03:07 | 4.69062 | -74.14130 | 8374 ft | 8 kts | 216° |
| 2026-04-19 03:07 | 4.69017 | -74.14185 | 8366 ft | 11 kts | 258° |
| 2026-04-19 03:08 | 4.69037 | -74.14255 | 8366 ft | 9 kts | 308° |
| 2026-04-19 03:08 | 4.69041 | -74.14261 | 8366 ft | 0 kts | 306° |
| 2026-04-19 03:09 | 4.69041 | -74.14260 | 8366 ft | 0 kts | 306° |
| 2026-04-19 03:10 | 4.69053 | -74.14276 | 8366 ft | 14 kts | 307° |
| 2026-04-19 03:10 | 4.69266 | -74.14559 | 8364 ft | 86 kts | 307° |
| 2026-04-19 03:11 | 4.69751 | -74.15199 | 8365 ft | 143 kts | 307° |
| 2026-04-19 03:11 | 4.70450 | -74.16127 | 8392 ft | 186 kts | 308° |
| 2026-04-19 03:11 | 4.71248 | -74.17188 | 9029 ft | 192 kts | 309° |
| 2026-04-19 03:11 | 4.72090 | -74.18302 | 9485 ft | 210 kts | 309° |
| 2026-04-19 03:12 | 4.72965 | -74.19544 | 9627 ft | 233 kts | 298° |
| 2026-04-19 03:12 | 4.73583 | -74.21148 | 9840 ft | 260 kts | 289° |
| 2026-04-19 03:12 | 4.74116 | -74.22968 | 10139 ft | 284 kts | 287° |
| 2026-04-19 03:12 | 4.74637 | -74.24962 | 10367 ft | 308 kts | 284° |
| 2026-04-19 03:13 | 4.74742 | -74.27192 | 10585 ft | 333 kts | 265° |
| 2026-04-19 03:13 | 4.74390 | -74.29535 | 11096 ft | 343 kts | 260° |
| 2026-04-19 03:13 | 4.73882 | -74.31885 | 11804 ft | 346 kts | 258° |
| 2026-04-19 03:13 | 4.73318 | -74.34247 | 12529 ft | 349 kts | 258° |
| 2026-04-19 03:14 | 4.72757 | -74.36619 | 13238 ft | 351 kts | 258° |
| 2026-04-19 03:14 | 4.72216 | -74.39013 | 13945 ft | 353 kts | 259° |
| 2026-04-19 03:14 | 4.71701 | -74.41425 | 14566 ft | 355 kts | 259° |
| 2026-04-19 03:14 | 4.70931 | -74.43785 | 15112 ft | 361 kts | 242° |
| 2026-04-19 03:15 | 4.69415 | -74.45810 | 15645 ft | 368 kts | 227° |
| 2026-04-19 03:15 | 4.67480 | -74.47508 | 16210 ft | 372 kts | 219° |
| 2026-04-19 03:15 | 4.65345 | -74.48998 | 16785 ft | 376 kts | 215° |
| 2026-04-19 03:15 | 4.63133 | -74.50422 | 17341 ft | 379 kts | 214° |
| 2026-04-19 03:16 | 4.60916 | -74.51872 | 17917 ft | 381 kts | 216° |
| 2026-04-19 03:16 | 4.58729 | -74.53383 | 18464 ft | 384 kts | 217° |
| 2026-04-19 03:16 | 4.56566 | -74.54965 | 18929 ft | 386 kts | 218° |
| 2026-04-19 03:16 | 4.54418 | -74.56599 | 19400 ft | 388 kts | 219° |
| 2026-04-19 03:17 | 4.52277 | -74.58261 | 19863 ft | 391 kts | 219° |
| 2026-04-19 03:17 | 4.50123 | -74.59941 | 20328 ft | 393 kts | 219° |
| 2026-04-19 03:17 | 4.47958 | -74.61625 | 20756 ft | 395 kts | 219° |
| 2026-04-19 03:17 | 4.45771 | -74.63317 | 21191 ft | 398 kts | 219° |
| 2026-04-19 03:18 | 4.43570 | -74.65008 | 21624 ft | 400 kts | 218° |
| 2026-04-19 03:18 | 4.41359 | -74.66716 | 22052 ft | 402 kts | 221° |
| 2026-04-19 03:18 | 4.39397 | -74.68715 | 22468 ft | 403 kts | 232° |
| 2026-04-19 03:18 | 4.37876 | -74.71069 | 22874 ft | 405 kts | 243° |
| 2026-04-19 03:19 | 4.36589 | -74.73591 | 23274 ft | 407 kts | 243° |
| 2026-04-19 03:19 | 4.35310 | -74.76088 | 23669 ft | 410 kts | 243° |
| 2026-04-19 03:19 | 4.34000 | -74.78634 | 24003 ft | 412 kts | 243° |
| 2026-04-19 03:19 | 4.32682 | -74.81193 | 24334 ft | 414 kts | 243° |
| 2026-04-19 03:20 | 4.31360 | -74.83758 | 24665 ft | 416 kts | 243° |
| 2026-04-19 03:20 | 4.30026 | -74.86344 | 24994 ft | 418 kts | 243° |
| 2026-04-19 03:20 | 4.28686 | -74.88939 | 25335 ft | 420 kts | 243° |
| 2026-04-19 03:20 | 4.27342 | -74.91539 | 25665 ft | 422 kts | 243° |
| 2026-04-19 03:21 | 4.25991 | -74.94156 | 25985 ft | 423 kts | 243° |
| 2026-04-19 03:21 | 4.24634 | -74.96785 | 26321 ft | 425 kts | 243° |
| 2026-04-19 03:21 | 4.23272 | -74.99426 | 26642 ft | 427 kts | 243° |
| 2026-04-19 03:21 | 4.21905 | -75.02080 | 26959 ft | 429 kts | 243° |
| 2026-04-19 03:22 | 4.20475 | -75.04708 | 27273 ft | 431 kts | 237° |
| 2026-04-19 03:22 | 4.18711 | -75.07142 | 27578 ft | 433 kts | 233° |
| 2026-04-19 03:22 | 4.16900 | -75.09563 | 27913 ft | 435 kts | 233° |
| 2026-04-19 03:22 | 4.15076 | -75.11993 | 28227 ft | 437 kts | 233° |
| 2026-04-19 03:23 | 4.13246 | -75.14429 | 28537 ft | 439 kts | 233° |
| 2026-04-19 03:23 | 4.11411 | -75.16876 | 28844 ft | 441 kts | 233° |
| 2026-04-19 03:23 | 4.09567 | -75.19339 | 29150 ft | 443 kts | 233° |
| 2026-04-19 03:23 | 4.07710 | -75.21822 | 29452 ft | 444 kts | 233° |
| 2026-04-19 03:24 | 4.05877 | -75.24272 | 29723 ft | 446 kts | 233° |
| 2026-04-19 03:24 | 4.03989 | -75.26797 | 29997 ft | 448 kts | 233° |
| 2026-04-19 03:24 | 4.02137 | -75.29272 | 30255 ft | 450 kts | 233° |
| 2026-04-19 03:24 | 4.00254 | -75.31785 | 30483 ft | 452 kts | 233° |
| 2026-04-19 03:25 | 3.98338 | -75.34341 | 30735 ft | 454 kts | 233° |
| 2026-04-19 03:25 | 3.96469 | -75.36818 | 31083 ft | 448 kts | 232° |
| 2026-04-19 03:25 | 3.94564 | -75.39306 | 31132 ft | 453 kts | 232° |
| 2026-04-19 03:25 | 3.92679 | -75.41787 | 31131 ft | 440 kts | 233° |
| 2026-04-19 03:26 | 3.90868 | -75.44223 | 31140 ft | 434 kts | 233° |
| 2026-04-19 03:26 | 3.87250 | -75.49016 | 31142 ft | 430 kts | 227° |
| 2026-04-19 03:27 | 3.82743 | -75.52926 | 31140 ft | 430 kts | 218° |
| 2026-04-19 03:27 | 3.78032 | -75.56623 | 31144 ft | 430 kts | 218° |
| 2026-04-19 03:28 | 3.73332 | -75.60325 | 31139 ft | 430 kts | 218° |
| 2026-04-19 03:28 | 3.68643 | -75.64023 | 31134 ft | 429 kts | 218° |
| 2026-04-19 03:29 | 3.63953 | -75.67724 | 31129 ft | 429 kts | 218° |
| 2026-04-19 03:29 | 3.59262 | -75.71420 | 31126 ft | 429 kts | 218° |
| 2026-04-19 03:30 | 3.54567 | -75.75121 | 31126 ft | 429 kts | 218° |
| 2026-04-19 03:30 | 3.49875 | -75.78816 | 31124 ft | 429 kts | 218° |
| 2026-04-19 03:31 | 3.45174 | -75.82517 | 31127 ft | 430 kts | 218° |
| 2026-04-19 03:31 | 3.40510 | -75.86195 | 31123 ft | 430 kts | 218° |
| 2026-04-19 03:32 | 3.35809 | -75.89898 | 31121 ft | 430 kts | 218° |
| 2026-04-19 03:32 | 3.31108 | -75.93599 | 31122 ft | 430 kts | 218° |
| 2026-04-19 03:33 | 3.26399 | -75.97301 | 31119 ft | 430 kts | 218° |
| 2026-04-19 03:33 | 3.21692 | -76.01002 | 31116 ft | 431 kts | 218° |
| 2026-04-19 03:34 | 3.16982 | -76.04715 | 31111 ft | 431 kts | 218° |
| 2026-04-19 03:34 | 3.12282 | -76.08422 | 31109 ft | 431 kts | 218° |
| 2026-04-19 03:35 | 3.07561 | -76.12131 | 31107 ft | 431 kts | 218° |
| 2026-04-19 03:35 | 3.02837 | -76.15849 | 31106 ft | 431 kts | 218° |
| 2026-04-19 03:36 | 2.98116 | -76.19561 | 31109 ft | 431 kts | 218° |
| 2026-04-19 03:36 | 2.93378 | -76.23242 | 31111 ft | 431 kts | 218° |
| 2026-04-19 03:37 | 2.88661 | -76.26872 | 31114 ft | 430 kts | 217° |
| 2026-04-19 03:37 | 2.83927 | -76.30530 | 31115 ft | 430 kts | 218° |
| 2026-04-19 03:38 | 2.79202 | -76.34181 | 31108 ft | 429 kts | 218° |
| 2026-04-19 03:38 | 2.74483 | -76.37835 | 31051 ft | 430 kts | 218° |
| 2026-04-19 03:38 | 2.72111 | -76.39673 | 30825 ft | 430 kts | 218° |
| 2026-04-19 03:39 | 2.69753 | -76.41499 | 30602 ft | 428 kts | 218° |
| 2026-04-19 03:39 | 2.67396 | -76.43322 | 30386 ft | 427 kts | 218° |
| 2026-04-19 03:39 | 2.65047 | -76.45138 | 30158 ft | 426 kts | 218° |
| 2026-04-19 03:39 | 2.62717 | -76.46955 | 29901 ft | 424 kts | 218° |
| 2026-04-19 03:40 | 2.60413 | -76.48795 | 29644 ft | 422 kts | 219° |
| 2026-04-19 03:40 | 2.58145 | -76.50642 | 29390 ft | 421 kts | 219° |
| 2026-04-19 03:40 | 2.55878 | -76.52501 | 29139 ft | 419 kts | 219° |
| 2026-04-19 03:40 | 2.53620 | -76.54351 | 28886 ft | 418 kts | 219° |
| 2026-04-19 03:41 | 2.51373 | -76.56181 | 28635 ft | 416 kts | 219° |
| 2026-04-19 03:41 | 2.49133 | -76.57995 | 28380 ft | 415 kts | 219° |
| 2026-04-19 03:41 | 2.46890 | -76.59805 | 28131 ft | 413 kts | 219° |
| 2026-04-19 03:41 | 2.44678 | -76.61587 | 27900 ft | 412 kts | 219° |
| 2026-04-19 03:42 | 2.42453 | -76.63385 | 27643 ft | 410 kts | 219° |
| 2026-04-19 03:42 | 2.40215 | -76.65203 | 27385 ft | 407 kts | 219° |
| 2026-04-19 03:42 | 2.38057 | -76.66963 | 26908 ft | 403 kts | 220° |
| 2026-04-19 03:42 | 2.35887 | -76.68734 | 26387 ft | 400 kts | 220° |
| 2026-04-19 03:43 | 2.33737 | -76.70489 | 25890 ft | 397 kts | 220° |
| 2026-04-19 03:43 | 2.31604 | -76.72231 | 25389 ft | 395 kts | 220° |
| 2026-04-19 03:43 | 2.29482 | -76.73961 | 24912 ft | 392 kts | 220° |
| 2026-04-19 03:43 | 2.27369 | -76.75678 | 24411 ft | 390 kts | 220° |
| 2026-04-19 03:44 | 2.25273 | -76.77378 | 23929 ft | 388 kts | 220° |
| 2026-04-19 03:44 | 2.23179 | -76.79079 | 23394 ft | 386 kts | 220° |
| 2026-04-19 03:44 | 2.21098 | -76.80774 | 22891 ft | 383 kts | 220° |
| 2026-04-19 03:44 | 2.19039 | -76.82452 | 22402 ft | 380 kts | 220° |
| 2026-04-19 03:45 | 2.16995 | -76.84118 | 21919 ft | 378 kts | 220° |
| 2026-04-19 03:45 | 2.14963 | -76.85772 | 21422 ft | 376 kts | 220° |
| 2026-04-19 03:45 | 2.12936 | -76.87423 | 20943 ft | 374 kts | 220° |
| 2026-04-19 03:45 | 2.10922 | -76.89064 | 20457 ft | 372 kts | 220° |
| 2026-04-19 03:46 | 2.08934 | -76.90681 | 19972 ft | 372 kts | 220° |
| 2026-04-19 03:46 | 2.06929 | -76.92311 | 19480 ft | 372 kts | 220° |
| 2026-04-19 03:46 | 2.04918 | -76.93946 | 18990 ft | 372 kts | 220° |
| 2026-04-19 03:46 | 2.02920 | -76.95573 | 18497 ft | 372 kts | 220° |
| 2026-04-19 03:47 | 2.00904 | -76.97213 | 17973 ft | 372 kts | 220° |
| 2026-04-19 03:47 | 1.98900 | -76.98844 | 17467 ft | 370 kts | 220° |
| 2026-04-19 03:47 | 1.96901 | -77.00468 | 17004 ft | 368 kts | 220° |
| 2026-04-19 03:47 | 1.94923 | -77.02075 | 16530 ft | 367 kts | 221° |
| 2026-04-19 03:48 | 1.92949 | -77.03681 | 16066 ft | 365 kts | 221° |
| 2026-04-19 03:48 | 1.90987 | -77.05280 | 15601 ft | 364 kts | 221° |
| 2026-04-19 03:48 | 1.89023 | -77.06879 | 15141 ft | 362 kts | 221° |
| 2026-04-19 03:48 | 1.87085 | -77.08456 | 14696 ft | 360 kts | 221° |
| 2026-04-19 03:49 | 1.85161 | -77.10021 | 14572 ft | 349 kts | 221° |
| 2026-04-19 03:49 | 1.83303 | -77.11531 | 14457 ft | 338 kts | 221° |
| 2026-04-19 03:49 | 1.81514 | -77.12987 | 14343 ft | 328 kts | 221° |
| 2026-04-19 03:49 | 1.79771 | -77.14405 | 14231 ft | 318 kts | 221° |
| 2026-04-19 03:50 | 1.77993 | -77.15611 | 14120 ft | 311 kts | 211° |
| 2026-04-19 03:50 | 1.76090 | -77.16625 | 13947 ft | 299 kts | 211° |
| 2026-04-19 03:50 | 1.74269 | -77.17595 | 13485 ft | 294 kts | 211° |
| 2026-04-19 03:50 | 1.72487 | -77.18549 | 13099 ft | 288 kts | 211° |
| 2026-04-19 03:51 | 1.70728 | -77.19492 | 12881 ft | 286 kts | 211° |
| 2026-04-19 03:51 | 1.68980 | -77.20431 | 12631 ft | 284 kts | 211° |
| 2026-04-19 03:51 | 1.67242 | -77.21365 | 12380 ft | 283 kts | 211° |
| 2026-04-19 03:51 | 1.65513 | -77.22294 | 12127 ft | 282 kts | 211° |
| 2026-04-19 03:52 | 1.64363 | -77.22911 | 11967 ft | 281 kts | 210° |
| 2026-04-19 03:52 | 1.62613 | -77.23848 | 11587 ft | 284 kts | 210° |
| 2026-04-19 03:52 | 1.60871 | -77.24779 | 11320 ft | 282 kts | 210° |
| 2026-04-19 03:52 | 1.59168 | -77.25690 | 11193 ft | 274 kts | 210° |
| 2026-04-19 03:53 | 1.57524 | -77.26569 | 11067 ft | 259 kts | 210° |
| 2026-04-19 03:53 | 1.55979 | -77.27393 | 10859 ft | 247 kts | 209° |
| 2026-04-19 03:53 | 1.54472 | -77.28198 | 10512 ft | 242 kts | 210° |
| 2026-04-19 03:53 | 1.53032 | -77.28967 | 10410 ft | 225 kts | 210° |
| 2026-04-19 03:54 | 1.51669 | -77.29676 | 10064 ft | 220 kts | 209° |
| 2026-04-19 03:54 | 1.50311 | -77.30360 | 9757 ft | 221 kts | 207° |
| 2026-04-19 03:54 | 1.48944 | -77.31042 | 9521 ft | 221 kts | 208° |
| 2026-04-19 03:54 | 1.47583 | -77.31717 | 9332 ft | 212 kts | 208° |
| 2026-04-19 03:55 | 1.46281 | -77.32362 | 9115 ft | 196 kts | 208° |
| 2026-04-19 03:55 | 1.45111 | -77.32945 | 8956 ft | 182 kts | 208° |
| 2026-04-19 03:55 | 1.44032 | -77.33484 | 8853 ft | 166 kts | 209° |
| 2026-04-19 03:55 | 1.43005 | -77.34000 | 8795 ft | 163 kts | 209° |
| 2026-04-19 03:56 | 1.41999 | -77.34507 | 8809 ft | 161 kts | 208° |
| 2026-04-19 03:56 | 1.41018 | -77.35000 | 8813 ft | 160 kts | 209° |
| 2026-04-19 03:56 | 1.40022 | -77.35501 | 8809 ft | 160 kts | 208° |
| 2026-04-19 03:56 | 1.39040 | -77.35994 | 8808 ft | 160 kts | 208° |
| 2026-04-19 03:57 | 1.37995 | -77.36437 | 8717 ft | 163 kts | 197° |
| 2026-04-19 03:57 | 1.36879 | -77.36520 | 8450 ft | 162 kts | 175° |
| 2026-04-19 03:57 | 1.35794 | -77.36229 | 8215 ft | 162 kts | 156° |
| 2026-04-19 03:57 | 1.34866 | -77.35596 | 7989 ft | 162 kts | 135° |
| 2026-04-19 03:58 | 1.34207 | -77.34694 | 7772 ft | 161 kts | 115° |
| 2026-04-19 03:58 | 1.33884 | -77.33634 | 7527 ft | 158 kts | 96° |
| 2026-04-19 03:58 | 1.33923 | -77.32543 | 7299 ft | 157 kts | 77° |
| 2026-04-19 03:58 | 1.34303 | -77.31537 | 7063 ft | 155 kts | 58° |
| 2026-04-19 03:59 | 1.34987 | -77.30702 | 6852 ft | 155 kts | 40° |
| 2026-04-19 03:59 | 1.35870 | -77.30090 | 6624 ft | 156 kts | 27° |
| 2026-04-19 03:59 | 1.36896 | -77.29767 | 6365 ft | 156 kts | 10° |
| 2026-04-19 03:59 | 1.37961 | -77.29545 | 6174 ft | 156 kts | 14° |
| 2026-04-19 04:00 | 1.39029 | -77.29266 | 5954 ft | 158 kts | 16° |
| 2026-04-19 04:00 | 1.39962 | -77.29016 | 5888 ft | 95 kts | 14° |
| 2026-04-19 04:00 | 1.40381 | -77.28906 | 5862 ft | 48 kts | 15° |
| 2026-04-19 04:00 | 1.40564 | -77.28858 | 5861 ft | 19 kts | 14° |
| 2026-04-19 04:01 | 1.40623 | -77.28845 | 5851 ft | 2 kts | 93° |
| 2026-04-19 04:01 | 1.40545 | -77.28861 | 5866 ft | 12 kts | 195° |
| 2026-04-19 04:01 | 1.40442 | -77.28888 | 5871 ft | 16 kts | 194° |
| 2026-04-19 04:02 | 1.40339 | -77.28915 | 5874 ft | 15 kts | 194° |
| 2026-04-19 04:02 | 1.40226 | -77.28946 | 5870 ft | 18 kts | 196° |
| 2026-04-19 04:02 | 1.40122 | -77.28974 | 5877 ft | 13 kts | 194° |
| 2026-04-19 04:02 | 1.40044 | -77.28994 | 5887 ft | 12 kts | 195° |
| 2026-04-19 04:03 | 1.39961 | -77.29016 | 5888 ft | 13 kts | 194° |
| 2026-04-19 04:03 | 1.39867 | -77.29041 | 5892 ft | 16 kts | 195° |
| 2026-04-19 04:03 | 1.39758 | -77.29070 | 5900 ft | 15 kts | 196° |
| 2026-04-19 04:03 | 1.39681 | -77.29082 | 5904 ft | 4 kts | 158° |
| 2026-04-19 04:04 | 1.39674 | -77.29057 | 5903 ft | 5 kts | 105° |
| 2026-04-19 04:04 | 1.39663 | -77.29027 | 5906 ft | 1 kts | 122° |
| 2026-04-19 04:04 | 1.39654 | -77.29020 | 5891 ft | 3 kts | 143° |
| 2026-04-19 04:04 | 1.39615 | -77.29022 | 5907 ft | 8 kts | 202° |
| 2026-04-19 04:05 | 1.39579 | -77.28992 | 5908 ft | 7 kts | 108° |
| 2026-04-19 04:05 | 1.39576 | -77.28982 | 5908 ft | 0 kts | 106° |